createdAt,value
2022-11-17T00:00:25.501Z,22.20
2022-11-17T00:05:27.348Z,19.15
2022-11-17T00:10:29.294Z,21.33
2022-11-17T00:15:31.373Z,21.88
2022-11-17T00:21:02.317Z,18.15
2022-11-17T00:26:04.175Z,21.50
2022-11-17T00:31:24.563Z,18.67
2022-11-17T00:36:26.743Z,18.63
2022-11-17T00:41:28.973Z,19.98
2022-11-17T00:46:31.183Z,18.27
2022-11-17T00:51:33.809Z,16.05
2022-11-17T00:56:35.987Z,18.98
2022-11-17T01:01:38.442Z,15.00
2022-11-17T01:06:46.326Z,16.25
2022-11-17T01:11:49.957Z,18.02
2022-11-17T01:16:52.222Z,17.50
2022-11-17T01:21:54.227Z,14.50
2022-11-17T01:26:56.197Z,16.58
2022-11-17T01:31:58.925Z,24.98
2022-11-17T01:37:19.260Z,18.67
2022-11-17T01:42:23.719Z,20.33
2022-11-17T01:47:29.126Z,16.25
2022-11-17T01:52:32.104Z,17.52
2022-11-17T01:57:41.973Z,17.70
2022-11-17T02:02:46.341Z,20.20
2022-11-17T02:07:52.367Z,20.95
2022-11-17T02:12:55.233Z,26.00
2022-11-17T02:17:59.483Z,20.40
2022-11-17T02:23:21.614Z,22.30
2022-11-17T02:28:30.081Z,18.30
2022-11-17T02:33:39.027Z,22.33
2022-11-17T02:38:49.881Z,23.27
2022-11-17T02:44:20.084Z,21.58
2022-11-17T02:49:31.538Z,21.65
2022-11-17T02:54:33.763Z,21.95
2022-11-17T02:59:42.897Z,22.85
2022-11-17T03:04:48.120Z,22.40
2022-11-17T03:10:06.727Z,25.02
2022-11-17T03:15:24.244Z,25.42
2022-11-17T03:20:40.497Z,26.73
2022-11-17T03:25:49.349Z,26.45
2022-11-17T03:30:54.256Z,30.77
2022-11-17T03:36:13.544Z,36.30
2022-11-17T03:41:18.355Z,30.17
2022-11-17T03:46:23.672Z,29.23
2022-11-17T03:51:28.571Z,26.02
2022-11-17T03:56:52.173Z,28.40
2022-11-17T04:01:54.495Z,28.58
2022-11-17T04:06:56.499Z,32.65
2022-11-17T04:12:16.861Z,30.52
2022-11-17T04:17:18.720Z,28.85
2022-11-17T04:22:20.571Z,31.75
2022-11-17T04:27:40.957Z,27.17
2022-11-17T04:32:42.889Z,25.65
2022-11-17T04:37:44.735Z,27.27
2022-11-17T04:42:46.608Z,28.00
2022-11-17T04:47:48.497Z,31.48
2022-11-17T04:52:50.361Z,25.35
2022-11-17T04:57:52.344Z,35.72
2022-11-17T05:02:54.249Z,39.97
2022-11-17T05:07:56.206Z,41.45
2022-11-17T05:13:16.373Z,37.47
2022-11-17T05:18:18.294Z,44.28
2022-11-17T05:23:38.606Z,38.75
2022-11-17T05:28:40.558Z,41.97
2022-11-17T05:33:43.052Z,43.03
2022-11-17T05:38:47.449Z,42.60
2022-11-17T05:43:50.527Z,37.60
2022-11-17T05:48:53.365Z,34.95
2022-11-17T05:53:55.183Z,38.92
2022-11-17T05:59:10.973Z,34.50
2022-11-17T06:04:16.684Z,29.52
2022-11-17T06:09:18.653Z,25.52
2022-11-17T06:14:20.600Z,24.05
2022-11-17T06:19:31.394Z,21.33
2022-11-17T06:24:33.803Z,22.10
2022-11-17T06:29:39.461Z,19.83
2022-11-17T06:34:51.902Z,20.63
2022-11-17T06:39:56.975Z,25.38
2022-11-17T06:44:58.847Z,27.00
2022-11-17T06:50:00.733Z,23.60
2022-11-17T06:55:02.615Z,23.05
2022-11-17T07:00:06.366Z,25.75
2022-11-17T07:05:08.601Z,28.25
2022-11-17T07:10:11.511Z,27.00
2022-11-17T07:15:13.380Z,22.25
2022-11-17T07:20:15.909Z,21.02
2022-11-17T07:25:22.268Z,20.27
2022-11-17T07:30:24.356Z,20.73
2022-11-17T07:35:26.169Z,18.95
2022-11-17T07:40:29.231Z,17.75
2022-11-17T07:45:32.333Z,17.02
2022-11-17T07:50:35.109Z,19.38
2022-11-17T07:55:36.928Z,16.27
2022-11-17T08:00:38.867Z,16.08
2022-11-17T08:05:43.629Z,16.45
2022-11-17T08:10:45.684Z,15.48
2022-11-17T08:15:47.527Z,15.48
2022-11-17T08:20:49.530Z,14.43
2022-11-17T08:25:51.322Z,11.77
2022-11-17T08:30:53.354Z,13.35
2022-11-17T08:35:59.998Z,14.02
2022-11-17T08:41:04.384Z,12.32
2022-11-17T08:46:11.187Z,9.98
2022-11-17T08:51:14.295Z,11.02
2022-11-17T08:56:16.073Z,7.80
2022-11-17T09:01:18.338Z,7.97
2022-11-17T09:06:20.241Z,9.70
2022-11-17T09:11:22.152Z,8.23
2022-11-17T09:16:25.332Z,8.88
2022-11-17T09:21:27.365Z,7.78
2022-11-17T09:26:29.220Z,8.88
2022-11-17T09:31:31.217Z,10.65
2022-11-17T09:36:33.997Z,11.27
2022-11-17T09:41:53.280Z,8.18
2022-11-17T09:47:07.213Z,10.50
2022-11-17T09:52:20.562Z,8.80
2022-11-17T09:57:26.018Z,9.15
2022-11-17T10:02:27.854Z,8.88
2022-11-17T10:07:32.085Z,10.00
2022-11-17T10:12:43.012Z,12.07
2022-11-17T10:17:44.832Z,12.57
2022-11-17T10:22:47.838Z,11.65
2022-11-17T10:27:53.341Z,10.38
2022-11-17T10:32:57.505Z,11.00
2022-11-17T10:38:20.880Z,9.30
2022-11-17T10:43:36.938Z,9.95
2022-11-17T10:48:40.173Z,6.30
2022-11-17T10:53:46.823Z,7.03
2022-11-17T10:59:03.985Z,5.90
2022-11-17T11:04:25.945Z,8.32
2022-11-17T11:09:28.867Z,7.18
2022-11-17T11:14:38.966Z,8.00
2022-11-17T11:19:50.409Z,6.38
2022-11-17T11:24:57.771Z,6.10
2022-11-17T11:30:02.453Z,5.97
2022-11-17T11:35:32.254Z,5.90
2022-11-17T11:40:41.282Z,6.45
2022-11-17T11:46:05.879Z,7.20
2022-11-17T11:51:21.106Z,6.40
2022-11-17T11:56:39.155Z,5.95
2022-11-17T12:01:47.929Z,5.90
2022-11-17T12:06:55.732Z,6.40
2022-11-17T12:12:01.868Z,6.47
2022-11-17T12:17:15.680Z,6.07
2022-11-17T12:22:29.542Z,5.45
2022-11-17T12:27:34.439Z,5.47
2022-11-17T12:32:48.525Z,5.10
2022-11-17T12:38:12.997Z,4.28
2022-11-17T12:43:14.916Z,4.78
2022-11-17T12:48:32.767Z,4.35
2022-11-17T12:53:42.371Z,4.43
2022-11-17T12:59:28.606Z,4.57
2022-11-17T13:04:49.125Z,4.57
2022-11-17T13:09:54.055Z,4.13
2022-11-17T13:15:02.689Z,4.32
2022-11-17T13:20:28.678Z,4.15
2022-11-17T13:25:30.894Z,3.92
2022-11-17T13:30:33.433Z,3.88
2022-11-17T13:35:36.428Z,4.28
2022-11-17T13:40:40.337Z,4.55
2022-11-17T13:45:43.464Z,4.65
2022-11-17T13:50:45.366Z,4.72
2022-11-17T13:55:47.688Z,5.13
2022-11-17T14:00:58.205Z,5.22
2022-11-17T14:06:00.299Z,5.32
2022-11-17T14:11:11.412Z,5.10
2022-11-17T14:16:32.081Z,5.47
2022-11-17T14:21:34.243Z,6.43
2022-11-17T14:26:41.583Z,5.68
2022-11-17T14:31:43.391Z,5.78
2022-11-17T14:36:53.938Z,5.70
2022-11-17T14:41:55.803Z,6.10
2022-11-17T14:46:57.613Z,6.72
2022-11-17T14:51:59.528Z,6.38
2022-11-17T14:57:01.395Z,6.38
2022-11-17T15:02:04.262Z,6.30
2022-11-17T15:07:06.400Z,5.88
2022-11-17T15:12:08.450Z,6.60
2022-11-17T15:17:14.471Z,6.13
2022-11-17T15:22:16.766Z,5.47
2022-11-17T15:27:18.546Z,6.00
2022-11-17T15:32:20.326Z,5.70
2022-11-17T15:37:22.162Z,5.68
2022-11-17T15:42:23.922Z,6.50
2022-11-17T15:47:25.686Z,7.13
2022-11-17T15:52:48.529Z,6.63
2022-11-17T15:57:49.259Z,5.68
2022-11-17T16:02:55.682Z,7.95
2022-11-17T16:08:00.220Z,6.05
2022-11-17T16:13:02.109Z,5.57
2022-11-17T16:18:04.031Z,5.07
2022-11-17T16:23:05.856Z,4.65
2022-11-17T16:28:08.263Z,5.97
2022-11-17T16:33:12.937Z,5.13
2022-11-17T16:38:16.573Z,5.65
2022-11-17T16:43:18.450Z,5.40
2022-11-17T16:48:20.310Z,6.10
2022-11-17T16:53:22.185Z,6.00
2022-11-17T16:58:24.052Z,6.03
2022-11-17T17:03:25.876Z,6.55
2022-11-17T17:08:27.712Z,6.38
2022-11-17T17:13:29.603Z,6.60
2022-11-17T17:18:32.380Z,8.68
2022-11-17T17:23:35.080Z,8.50
2022-11-17T17:28:40.594Z,11.32
2022-11-17T17:33:42.550Z,24.00
2022-11-17T17:38:47.797Z,9.25
2022-11-17T17:44:04.822Z,8.40
2022-11-17T17:49:06.813Z,9.20
2022-11-17T17:54:15.561Z,9.73
2022-11-17T17:59:19.315Z,8.77
2022-11-17T18:04:21.469Z,9.88
2022-11-17T18:09:23.470Z,12.73
2022-11-17T18:14:25.307Z,9.35
2022-11-17T18:19:31.551Z,8.23
2022-11-17T18:24:34.903Z,9.10
2022-11-17T18:29:36.741Z,11.88
2022-11-17T18:34:39.096Z,14.43
2022-11-17T18:39:40.896Z,13.00
2022-11-17T18:44:42.842Z,10.98
2022-11-17T18:49:45.255Z,11.70
2022-11-17T18:54:47.028Z,11.40
2022-11-17T18:59:48.771Z,17.45
2022-11-17T19:04:50.556Z,15.70
2022-11-17T19:09:52.339Z,13.55
2022-11-17T19:14:54.306Z,15.77
2022-11-17T19:19:56.107Z,14.63
2022-11-17T19:24:57.898Z,15.70
2022-11-17T19:29:59.701Z,16.27
2022-11-17T19:35:13.664Z,15.80
2022-11-17T19:40:17.806Z,17.08
2022-11-17T19:45:20.991Z,16.60
2022-11-17T19:50:22.754Z,13.95
2022-11-17T19:55:24.541Z,13.38
2022-11-17T20:00:26.286Z,13.50
2022-11-17T20:05:28.080Z,11.88
2022-11-17T20:10:32.560Z,13.35
2022-11-17T20:15:35.134Z,14.70
2022-11-17T20:20:36.986Z,14.95
2022-11-17T20:25:38.837Z,13.38
2022-11-17T20:30:41.063Z,13.60
2022-11-17T20:35:42.826Z,14.90
2022-11-17T20:40:44.576Z,14.10
2022-11-17T20:45:46.402Z,12.80
2022-11-17T20:51:10.865Z,12.35
2022-11-17T20:56:14.370Z,11.57
2022-11-17T21:01:18.639Z,12.25
2022-11-17T21:06:23.167Z,10.88
2022-11-17T21:11:43.358Z,11.35
2022-11-17T21:16:49.958Z,12.15
2022-11-17T21:21:53.423Z,12.95
2022-11-17T21:26:55.465Z,10.65
2022-11-17T21:31:57.294Z,10.55
2022-11-17T21:36:59.096Z,10.43
2022-11-17T21:42:00.969Z,10.10
2022-11-17T21:47:02.769Z,10.45
2022-11-17T21:52:04.691Z,11.60
2022-11-17T21:57:06.540Z,11.68
2022-11-17T22:02:09.871Z,10.75
2022-11-17T22:07:11.765Z,10.05
2022-11-17T22:12:13.529Z,12.77
2022-11-17T22:17:15.291Z,12.75
2022-11-17T22:22:17.063Z,14.35
2022-11-17T22:27:18.857Z,14.40
2022-11-17T22:32:20.948Z,13.35
2022-11-17T22:37:22.721Z,13.18
2022-11-17T22:42:24.505Z,10.85
2022-11-17T22:47:26.267Z,10.00
2022-11-17T22:52:28.015Z,10.30
2022-11-17T22:57:29.794Z,10.05
2022-11-17T23:02:31.621Z,9.85
2022-11-17T23:07:33.572Z,11.45
2022-11-17T23:12:35.778Z,10.30
2022-11-17T23:17:37.546Z,11.07
2022-11-17T23:22:39.425Z,9.68
2022-11-17T23:27:41.632Z,9.05
2022-11-17T23:32:43.537Z,9.80
2022-11-17T23:37:45.282Z,11.90
2022-11-17T23:42:47.034Z,8.95
2022-11-17T23:47:48.791Z,8.90
2022-11-17T23:52:50.577Z,10.40
2022-11-17T23:57:52.780Z,8.65
